createdAt,value
2022-09-17T00:03:02.080Z,11.59
2022-09-17T00:08:08.405Z,11.54
2022-09-17T00:13:10.787Z,11.50
2022-09-17T00:18:14.590Z,11.42
2022-09-17T00:23:16.293Z,11.36
2022-09-17T00:28:18.324Z,11.34
2022-09-17T00:33:20.860Z,11.36
2022-09-17T00:38:22.519Z,11.44
2022-09-17T00:43:34.199Z,11.53
2022-09-17T00:48:35.950Z,11.59
2022-09-17T00:53:39.408Z,11.58
2022-09-17T00:58:41.601Z,11.53
2022-09-17T01:03:43.606Z,11.51
2022-09-17T01:09:14.509Z,11.62
2022-09-17T01:14:37.117Z,11.66
2022-09-17T01:20:16.584Z,11.73
2022-09-17T01:25:34.299Z,11.76
2022-09-17T01:30:54.175Z,11.79
2022-09-17T01:36:11.019Z,11.83
2022-09-17T01:41:39.354Z,11.84
2022-09-17T01:46:49.955Z,11.87
2022-09-17T01:51:54.795Z,11.78
2022-09-17T01:57:28.179Z,11.72
2022-09-17T02:02:35.560Z,11.50
2022-09-17T02:07:44.852Z,11.27
2022-09-17T02:12:54.887Z,11.12
2022-09-17T02:18:08.778Z,11.03
2022-09-17T02:23:19.421Z,10.98
2022-09-17T02:28:29.727Z,11.03
2022-09-17T02:33:34.684Z,11.04
2022-09-17T02:38:41.187Z,11.00
2022-09-17T02:43:52.056Z,10.86
2022-09-17T02:49:32.702Z,10.86
2022-09-17T02:54:53.017Z,10.78
2022-09-17T03:00:12.345Z,10.75
2022-09-17T03:05:18.626Z,10.73
2022-09-17T03:10:20.331Z,10.67
2022-09-17T03:15:21.941Z,10.65
2022-09-17T03:20:23.570Z,10.57
2022-09-17T03:25:25.209Z,10.56
2022-09-17T03:30:26.922Z,10.57
2022-09-17T03:35:28.622Z,10.58
2022-09-17T03:40:30.313Z,10.53
2022-09-17T03:45:32.343Z,10.39
2022-09-17T03:50:34.015Z,10.23
2022-09-17T03:55:38.363Z,10.20
2022-09-17T04:00:40.062Z,10.13
2022-09-17T04:05:42.056Z,10.17
2022-09-17T04:10:44.475Z,10.26
2022-09-17T04:15:47.078Z,10.28
2022-09-17T04:20:48.739Z,10.34
2022-09-17T04:25:50.487Z,10.37
2022-09-17T04:30:52.207Z,10.41
2022-09-17T04:35:54.260Z,10.39
2022-09-17T04:40:57.345Z,10.38
2022-09-17T04:45:58.995Z,10.44
2022-09-17T04:51:00.808Z,10.48
2022-09-17T04:56:02.535Z,10.53
2022-09-17T05:01:04.329Z,10.56
2022-09-17T05:06:06.240Z,10.54
2022-09-17T05:11:07.946Z,10.52
2022-09-17T05:16:10.327Z,10.47
2022-09-17T05:21:12.248Z,10.38
2022-09-17T05:26:14.061Z,10.41
2022-09-17T05:31:15.832Z,10.37
2022-09-17T05:36:17.550Z,10.43
2022-09-17T05:41:19.359Z,10.47
2022-09-17T05:46:21.162Z,10.51
2022-09-17T05:51:22.898Z,10.41
2022-09-17T05:56:24.567Z,10.39
2022-09-17T06:01:26.527Z,10.38
2022-09-17T06:06:30.459Z,10.47
2022-09-17T06:11:32.463Z,10.49
2022-09-17T06:16:34.197Z,10.58
2022-09-17T06:21:36.003Z,10.58
2022-09-17T06:26:37.785Z,10.53
2022-09-17T06:31:39.494Z,10.55
2022-09-17T06:36:41.426Z,10.57
2022-09-17T06:41:43.394Z,10.59
2022-09-17T06:46:45.180Z,10.72
2022-09-17T06:51:46.915Z,10.76
2022-09-17T06:56:48.666Z,10.82
2022-09-17T07:01:50.505Z,10.89
2022-09-17T07:06:52.252Z,10.90
2022-09-17T07:11:53.917Z,10.90
2022-09-17T07:16:55.799Z,10.98
2022-09-17T07:21:57.543Z,11.01
2022-09-17T07:26:59.317Z,11.09
2022-09-17T07:32:01.094Z,11.10
2022-09-17T07:37:03.045Z,11.12
2022-09-17T07:42:04.797Z,10.92
2022-09-17T07:47:06.539Z,10.96
2022-09-17T07:52:08.212Z,10.92
2022-09-17T07:57:09.913Z,10.70
2022-09-17T08:02:14.901Z,10.54
2022-09-17T08:07:16.714Z,10.50
2022-09-17T08:12:19.445Z,10.57
2022-09-17T08:17:21.078Z,10.41
2022-09-17T08:22:22.809Z,10.44
2022-09-17T08:27:24.426Z,10.40
2022-09-17T08:32:28.601Z,10.26
2022-09-17T08:37:30.766Z,9.84
2022-09-17T08:42:39.670Z,9.64
2022-09-17T08:47:43.543Z,9.58
2022-09-17T08:52:54.782Z,9.50
2022-09-17T08:57:56.483Z,9.53
2022-09-17T09:03:21.301Z,9.61
2022-09-17T09:08:35.421Z,9.81
2022-09-17T09:13:50.902Z,9.95
2022-09-17T09:19:14.199Z,10.09
2022-09-17T09:24:21.849Z,10.22
2022-09-17T09:29:54.027Z,10.38
2022-09-17T09:34:57.971Z,10.46
2022-09-17T09:40:19.698Z,10.65
2022-09-17T09:45:59.325Z,10.85
2022-09-17T09:51:11.970Z,10.97
2022-09-17T09:56:16.599Z,10.96
2022-09-17T10:01:20.966Z,10.94
2022-09-17T10:06:22.845Z,11.05
2022-09-17T10:11:27.623Z,11.05
2022-09-17T10:16:31.274Z,11.03
2022-09-17T10:21:41.928Z,11.04
2022-09-17T10:26:43.826Z,11.13
2022-09-17T10:31:57.377Z,11.22
2022-09-17T10:36:59.917Z,11.47
2022-09-17T10:42:04.685Z,11.38
2022-09-17T10:47:13.605Z,11.43
2022-09-17T10:52:32.582Z,11.54
2022-09-17T10:58:08.323Z,11.52
2022-09-17T11:03:46.948Z,11.60
2022-09-17T11:09:13.615Z,11.62
2022-09-17T11:14:57.283Z,11.66
2022-09-17T11:20:19.357Z,11.52
2022-09-17T11:25:24.093Z,11.73
2022-09-17T11:30:33.602Z,11.83
2022-09-17T11:35:52.276Z,12.09
2022-09-17T11:41:04.489Z,12.44
2022-09-17T11:46:17.483Z,12.36
2022-09-17T11:51:25.374Z,12.46
2022-09-17T11:56:43.072Z,12.53
2022-09-17T12:01:53.967Z,12.40
2022-09-17T12:07:13.146Z,12.28
2022-09-17T12:12:45.010Z,12.11
2022-09-17T12:17:47.843Z,12.02
2022-09-17T12:22:51.773Z,12.03
2022-09-17T12:28:03.996Z,12.25
2022-09-17T12:33:25.157Z,12.66
2022-09-17T12:38:36.047Z,13.04
2022-09-17T12:43:56.847Z,13.13
2022-09-17T12:49:32.427Z,13.52
2022-09-17T12:54:55.818Z,13.78
2022-09-17T13:00:07.919Z,13.93
2022-09-17T13:05:12.960Z,13.54
2022-09-17T13:10:36.168Z,13.45
2022-09-17T13:16:04.229Z,13.35
2022-09-17T13:21:13.292Z,13.42
2022-09-17T13:26:19.150Z,13.17
2022-09-17T13:31:44.477Z,13.12
2022-09-17T13:36:51.270Z,13.19
2022-09-17T13:42:03.871Z,13.22
2022-09-17T13:47:17.602Z,13.16
2022-09-17T13:52:33.943Z,13.34
2022-09-17T13:57:48.069Z,13.24
2022-09-17T14:02:49.892Z,13.18
2022-09-17T14:08:05.741Z,13.11
2022-09-17T14:13:28.832Z,12.75
2022-09-17T14:18:36.003Z,12.69
2022-09-17T14:23:52.678Z,12.79
2022-09-17T14:29:15.572Z,12.83
2022-09-17T14:34:23.846Z,12.73
2022-09-17T14:39:30.340Z,12.66
2022-09-17T14:44:34.572Z,12.57
2022-09-17T14:49:38.525Z,12.66
2022-09-17T14:54:43.625Z,12.43
2022-09-17T14:59:56.778Z,12.31
2022-09-17T15:04:58.742Z,12.28
2022-09-17T15:10:09.071Z,12.25
2022-09-17T15:15:19.022Z,12.15
2022-09-17T15:20:28.651Z,11.95
2022-09-17T15:25:31.619Z,12.01
2022-09-17T15:30:33.347Z,12.19
2022-09-17T15:35:35.210Z,12.28
2022-09-17T15:40:41.200Z,12.12
2022-09-17T15:45:42.957Z,12.17
2022-09-17T15:50:58.787Z,12.57
2022-09-17T15:56:05.314Z,12.84
2022-09-17T16:01:16.115Z,13.02
2022-09-17T16:06:20.932Z,13.21
2022-09-17T16:11:25.207Z,13.25
2022-09-17T16:16:37.790Z,13.22
2022-09-17T16:21:39.646Z,13.21
2022-09-17T16:26:41.335Z,13.07
2022-09-17T16:31:44.689Z,12.85
2022-09-17T16:36:46.620Z,12.82
2022-09-17T16:41:48.301Z,12.56
2022-09-17T16:46:50.052Z,12.54
2022-09-17T16:51:51.762Z,12.47
2022-09-17T16:56:53.773Z,12.34
2022-09-17T17:01:56.153Z,12.25
2022-09-17T17:06:58.091Z,12.06
2022-09-17T17:11:59.756Z,11.89
2022-09-17T17:17:01.425Z,11.76
2022-09-17T17:22:03.155Z,11.66
2022-09-17T17:27:05.277Z,11.59
2022-09-17T17:32:07.175Z,11.56
2022-09-17T17:37:08.873Z,11.60
2022-09-17T17:42:10.820Z,11.61
2022-09-17T17:47:13.542Z,11.63
2022-09-17T17:52:15.170Z,11.68
2022-09-17T17:57:17.025Z,11.62
2022-09-17T18:02:18.899Z,11.59
2022-09-17T18:07:20.781Z,11.54
2022-09-17T18:12:26.700Z,11.58
2022-09-17T18:17:29.579Z,11.60
2022-09-17T18:22:31.366Z,11.48
2022-09-17T18:27:33.216Z,11.48
2022-09-17T18:32:36.243Z,11.42
2022-09-17T18:37:37.788Z,11.31
2022-09-17T18:42:39.541Z,11.25
2022-09-17T18:47:41.249Z,11.22
2022-09-17T18:52:43.032Z,11.21
2022-09-17T18:57:44.699Z,11.24
2022-09-17T19:02:48.574Z,11.14
2022-09-17T19:07:50.529Z,11.04
2022-09-17T19:12:52.240Z,11.15
2022-09-17T19:17:54.532Z,11.16
2022-09-17T19:22:56.247Z,11.10
2022-09-17T19:27:58.289Z,11.03
2022-09-17T19:33:00.331Z,10.98
2022-09-17T19:38:02.074Z,10.95
2022-09-17T19:43:03.755Z,10.85
2022-09-17T19:48:05.475Z,10.92
2022-09-17T19:53:07.211Z,10.89
2022-09-17T19:58:09.021Z,10.81
2022-09-17T20:03:11.401Z,10.73
2022-09-17T20:08:13.119Z,10.82
2022-09-17T20:13:18.543Z,10.83
2022-09-17T20:18:23.458Z,10.83
2022-09-17T20:23:31.711Z,10.80
2022-09-17T20:28:34.093Z,10.73
2022-09-17T20:33:35.956Z,10.65
2022-09-17T20:39:10.826Z,10.54
2022-09-17T20:43:59.840Z,10.53
2022-09-17T20:49:01.594Z,10.56
2022-09-17T20:54:03.507Z,10.46
2022-09-17T20:59:24.852Z,10.40
2022-09-17T21:04:27.217Z,10.30
2022-09-17T21:09:28.931Z,10.24
2022-09-17T21:14:30.615Z,10.22
2022-09-17T21:19:32.359Z,10.17
2022-09-17T21:24:34.050Z,10.11
2022-09-17T21:29:35.698Z,9.99
2022-09-17T21:34:37.371Z,9.90
2022-09-17T21:39:39.090Z,9.82
2022-09-17T21:44:40.729Z,9.77
2022-09-17T21:49:44.212Z,9.75
2022-09-17T21:54:45.863Z,9.71
2022-09-17T21:59:47.513Z,9.66
2022-09-17T22:04:49.189Z,9.60
2022-09-17T22:09:51.218Z,9.57
2022-09-17T22:14:52.806Z,9.53
2022-09-17T22:19:54.549Z,9.59
2022-09-17T22:24:56.250Z,9.50
2022-09-17T22:29:57.915Z,9.51
2022-09-17T22:34:59.635Z,9.46
2022-09-17T22:40:01.681Z,9.45
2022-09-17T22:45:03.648Z,9.42
2022-09-17T22:50:05.882Z,9.43
2022-09-17T22:55:08.012Z,9.43
2022-09-17T23:00:10.532Z,9.40
2022-09-17T23:05:12.179Z,9.38
2022-09-17T23:10:13.911Z,9.36
2022-09-17T23:15:16.305Z,9.32
2022-09-17T23:20:17.929Z,9.41
2022-09-17T23:25:19.563Z,9.47
2022-09-17T23:30:22.871Z,9.51
2022-09-17T23:35:25.338Z,9.56
2022-09-17T23:40:28.759Z,9.58
2022-09-17T23:45:30.644Z,9.68
2022-09-17T23:50:32.320Z,9.68
2022-09-17T23:55:33.995Z,9.65
